createdAt,value
2018-07-11T00:03:00.010Z,67.21
2018-07-11T00:07:43.601Z,68.65
2018-07-11T00:12:28.226Z,68.06
2018-07-11T00:17:15.397Z,68.49
2018-07-11T00:21:59.066Z,68.56
2018-07-11T00:26:42.585Z,69.12
2018-07-11T00:31:29.826Z,70.41
2018-07-11T00:36:13.353Z,69.31
2018-07-11T00:41:01.085Z,70.56
2018-07-11T00:45:44.601Z,69.67
2018-07-11T00:50:28.112Z,69.03
2018-07-11T00:55:11.637Z,69.39
2018-07-11T00:59:55.708Z,71.35
2018-07-11T01:04:40.362Z,69.71
2018-07-11T01:09:23.693Z,70.94
2018-07-11T01:14:07.063Z,71.09
2018-07-11T01:19:08.490Z,70.47
2018-07-11T01:23:52.240Z,70.27
2018-07-11T01:28:35.822Z,69.73
2018-07-11T01:33:20.474Z,69.38
2018-07-11T01:38:04.037Z,70.28
2018-07-11T01:42:50.889Z,69.35
2018-07-11T01:47:34.329Z,69.59
2018-07-11T01:52:28.728Z,69.58
2018-07-11T01:57:12.320Z,69.58
2018-07-11T02:01:59.259Z,69.14
2018-07-11T02:06:42.846Z,68.59
2018-07-11T02:11:31.580Z,68.90
2018-07-11T02:16:15.123Z,69.37
2018-07-11T02:21:02.527Z,69.23
2018-07-11T02:25:47.283Z,68.64
2018-07-11T02:30:33.960Z,69.36
2018-07-11T02:35:17.531Z,68.93
2018-07-11T02:40:01.124Z,69.36
2018-07-11T02:44:48.021Z,69.67
2018-07-11T02:49:31.557Z,69.51
2018-07-11T02:54:15.373Z,69.34
2018-07-11T02:58:58.762Z,69.58
2018-07-11T03:03:43.426Z,69.83
2018-07-11T03:08:35.023Z,70.64
2018-07-11T03:13:21.170Z,70.14
2018-07-11T03:18:05.319Z,70.28
2018-07-11T03:22:52.445Z,69.65
2018-07-11T03:27:36.076Z,69.77
2018-07-11T03:32:20.873Z,70.56
2018-07-11T03:37:04.458Z,70.67
2018-07-11T03:41:48.193Z,72.83
2018-07-11T03:46:31.980Z,72.01
2018-07-11T03:51:16.419Z,71.47
2018-07-11T03:56:00.014Z,72.56
2018-07-11T04:00:47.490Z,72.90
2018-07-11T04:05:31.091Z,71.72
2018-07-11T04:10:14.641Z,72.97
2018-07-11T04:14:58.305Z,72.57
2018-07-11T04:19:41.820Z,72.20
2018-07-11T04:24:25.927Z,73.76
2018-07-11T04:29:10.319Z,73.76
2018-07-11T04:33:54.009Z,73.33
2018-07-11T04:38:37.606Z,72.91
2018-07-11T04:43:23.413Z,74.63
2018-07-11T04:48:08.366Z,73.83
2018-07-11T04:52:51.885Z,75.10
2018-07-11T04:57:35.437Z,75.21
2018-07-11T05:02:19.267Z,74.84
2018-07-11T05:07:02.874Z,74.15
2018-07-11T05:11:47.625Z,74.24
2018-07-11T05:16:31.190Z,77.10
2018-07-11T05:21:17.982Z,75.60
2018-07-11T05:26:01.508Z,74.37
2018-07-11T05:30:45.320Z,74.59
2018-07-11T05:35:34.215Z,74.19
2018-07-11T05:40:18.692Z,73.25
2018-07-11T05:45:02.272Z,72.69
2018-07-11T05:49:45.762Z,71.55
2018-07-11T05:54:29.571Z,70.10
2018-07-11T05:59:13.188Z,69.80
2018-07-11T06:03:57.042Z,69.74
2018-07-11T06:08:40.584Z,69.17
2018-07-11T06:13:25.316Z,68.58
2018-07-11T06:18:09.381Z,67.28
2018-07-11T06:22:53.141Z,67.04
2018-07-11T06:27:36.779Z,67.36
2018-07-11T06:32:20.455Z,67.77
2018-07-11T06:37:04.047Z,68.32
2018-07-11T06:41:47.769Z,67.29
2018-07-11T06:46:31.319Z,66.43
2018-07-11T06:51:19.916Z,63.96
2018-07-11T06:56:03.480Z,64.23
2018-07-11T07:00:47.383Z,63.16
2018-07-11T07:05:31.281Z,62.69
2018-07-11T07:10:20.324Z,59.96
2018-07-11T07:15:05.255Z,61.49
2018-07-11T07:19:49.395Z,61.55
2018-07-11T07:24:33.571Z,63.00
2018-07-11T07:29:17.452Z,61.98
2018-07-11T07:34:04.317Z,64.09
2018-07-11T07:38:47.792Z,61.46
2018-07-11T07:43:31.614Z,61.53
2018-07-11T07:48:16.123Z,59.97
2018-07-11T07:52:59.885Z,59.09
2018-07-11T07:57:43.478Z,59.66
2018-07-11T08:02:28.095Z,59.63
2018-07-11T08:07:11.524Z,58.28
2018-07-11T08:11:56.245Z,57.77
2018-07-11T08:16:39.842Z,58.86
2018-07-11T08:21:23.616Z,56.66
2018-07-11T08:26:17.914Z,58.92
2018-07-11T08:31:53.355Z,56.08
2018-07-11T08:38:51.394Z,57.68
2018-07-11T08:45:54.015Z,57.46
2018-07-11T08:53:10.972Z,55.96
2018-07-11T08:58:21.312Z,53.37
2018-07-11T09:05:20.217Z,54.94
2018-07-11T09:12:25.493Z,56.23
2018-07-11T09:18:21.610Z,54.13
2018-07-11T09:23:23.030Z,55.55
2018-07-11T09:28:06.558Z,56.51
2018-07-11T09:32:50.097Z,55.42
2018-07-11T09:37:33.955Z,55.30
2018-07-11T09:42:18.747Z,53.38
2018-07-11T09:47:33.007Z,52.10
2018-07-11T09:52:20.555Z,54.77
2018-07-11T09:57:05.146Z,53.22
2018-07-11T10:01:52.274Z,53.13
2018-07-11T10:06:35.783Z,54.01
2018-07-11T10:11:22.491Z,53.66
2018-07-11T10:16:05.958Z,54.58
2018-07-11T10:20:50.635Z,51.96
2018-07-11T10:25:34.201Z,52.81
2018-07-11T10:30:18.686Z,53.39
2018-07-11T10:35:03.106Z,52.95
2018-07-11T10:39:47.825Z,54.85
2018-07-11T10:44:31.645Z,55.83
2018-07-11T10:49:23.253Z,53.99
2018-07-11T10:54:06.664Z,51.82
2018-07-11T10:58:50.436Z,52.35
2018-07-11T11:03:34.976Z,51.84
2018-07-11T11:08:18.519Z,53.99
2018-07-11T11:13:05.906Z,52.32
2018-07-11T11:17:49.382Z,51.98
2018-07-11T11:22:33.040Z,51.29
2018-07-11T11:27:16.573Z,51.48
2018-07-11T11:32:01.444Z,53.06
2018-07-11T11:36:44.885Z,50.00
2018-07-11T11:41:32.068Z,52.18
2018-07-11T11:46:15.571Z,51.15
2018-07-11T11:50:59.261Z,48.56
2018-07-11T11:55:43.925Z,49.83
2018-07-11T12:00:30.618Z,52.14
2018-07-11T12:05:14.253Z,51.91
2018-07-11T12:10:01.488Z,50.73
2018-07-11T12:14:45.108Z,50.02
2018-07-11T12:19:28.740Z,49.77
2018-07-11T12:24:12.348Z,52.50
2018-07-11T12:28:55.860Z,52.60
2018-07-11T12:33:39.449Z,48.30
2018-07-11T12:38:22.927Z,49.80
2018-07-11T12:43:07.021Z,53.19
2018-07-11T12:47:55.936Z,50.75
2018-07-11T12:52:39.636Z,53.37
2018-07-11T12:57:25.126Z,53.93
2018-07-11T13:02:09.717Z,50.83
2018-07-11T13:06:53.301Z,51.96
2018-07-11T13:11:37.900Z,51.57
2018-07-11T13:16:21.462Z,53.60
2018-07-11T13:21:05.301Z,50.30
2018-07-11T13:25:48.849Z,51.78
2018-07-11T13:30:32.430Z,48.92
2018-07-11T13:35:15.927Z,48.70
2018-07-11T13:40:04.875Z,48.55
2018-07-11T13:44:48.455Z,48.61
2018-07-11T13:49:32.245Z,51.11
2018-07-11T13:54:15.710Z,50.85
2018-07-11T13:58:59.144Z,52.14
2018-07-11T14:03:42.767Z,49.84
2018-07-11T14:08:26.189Z,51.08
2018-07-11T14:13:09.717Z,48.85
2018-07-11T14:17:53.306Z,49.78
2018-07-11T14:22:38.013Z,50.55
2018-07-11T14:27:22.683Z,50.32
2018-07-11T14:32:06.933Z,49.41
2018-07-11T14:36:50.512Z,51.12
2018-07-11T14:41:36.123Z,50.59
2018-07-11T14:46:19.701Z,51.04
2018-07-11T14:51:14.505Z,50.66
2018-07-11T14:55:57.836Z,52.51
2018-07-11T15:00:45.528Z,49.91
2018-07-11T15:05:29.548Z,49.35
2018-07-11T15:10:16.872Z,50.99
2018-07-11T15:15:00.340Z,51.34
2018-07-11T15:19:47.467Z,55.41
2018-07-11T15:24:30.982Z,54.94
2018-07-11T15:29:14.703Z,56.08
2018-07-11T15:33:58.230Z,56.40
2018-07-11T15:38:44.953Z,54.97
2018-07-11T15:43:30.284Z,55.66
2018-07-11T15:48:13.749Z,56.54
2018-07-11T15:52:57.722Z,56.84
2018-07-11T15:57:47.850Z,56.50
2018-07-11T16:02:33.755Z,55.56
2018-07-11T16:07:18.046Z,55.26
2018-07-11T16:12:05.156Z,55.03
2018-07-11T16:16:48.590Z,54.91
2018-07-11T16:21:33.118Z,55.65
2018-07-11T16:26:16.502Z,55.06
2018-07-11T16:31:10.306Z,56.25
2018-07-11T16:35:53.854Z,55.97
2018-07-11T16:40:38.431Z,55.63
2018-07-11T16:45:22.740Z,57.18
2018-07-11T16:50:12.110Z,57.64
2018-07-11T16:54:55.640Z,58.42
2018-07-11T16:59:48.902Z,57.89
2018-07-11T17:04:33.400Z,59.15
2018-07-11T17:09:16.955Z,59.46
2018-07-11T17:14:02.226Z,59.60
2018-07-11T17:18:48.991Z,58.75
2018-07-11T17:23:32.525Z,59.06
2018-07-11T17:28:15.978Z,59.83
2018-07-11T17:33:01.103Z,58.59
2018-07-11T17:37:44.590Z,59.46
2018-07-11T17:42:31.840Z,59.93
2018-07-11T17:47:15.284Z,59.16
2018-07-11T17:52:09.729Z,59.26
2018-07-11T17:56:59.123Z,59.00
2018-07-11T18:01:50.812Z,59.68
2018-07-11T18:07:16.098Z,61.32
2018-07-11T18:12:11.699Z,59.86
2018-07-11T18:16:59.810Z,59.67
2018-07-11T18:22:26.452Z,60.36
2018-07-11T18:28:37.126Z,60.15
2018-07-11T18:33:32.381Z,59.28
2018-07-11T18:38:23.615Z,59.19
2018-07-11T18:43:32.245Z,59.62
2018-07-11T18:49:30.837Z,59.93
2018-07-11T18:56:28.921Z,61.62
2018-07-11T19:01:36.231Z,61.55
2018-07-11T19:06:43.302Z,62.13
2018-07-11T19:12:07.504Z,61.16
2018-07-11T19:17:04.542Z,61.71
2018-07-11T19:21:55.886Z,61.57
2018-07-11T19:26:57.324Z,61.19
2018-07-11T19:31:56.503Z,62.97
2018-07-11T19:36:55.701Z,62.40
2018-07-11T19:41:45.611Z,62.62
2018-07-11T19:46:39.954Z,62.16
2018-07-11T19:54:06.051Z,62.72
2018-07-11T19:58:50.297Z,65.01
2018-07-11T20:03:33.875Z,64.46
2018-07-11T20:08:17.711Z,63.91
2018-07-11T20:13:01.341Z,65.52
2018-07-11T20:17:45.339Z,65.04
2018-07-11T20:22:29.475Z,65.42
2018-07-11T20:27:13.139Z,64.59
2018-07-11T20:31:56.943Z,65.73
2018-07-11T20:36:40.684Z,64.69
2018-07-11T20:41:28.101Z,64.61
2018-07-11T20:46:11.756Z,65.07
2018-07-11T20:50:59.980Z,63.78
2018-07-11T20:55:43.664Z,63.95
2018-07-11T21:00:37.927Z,63.60
2018-07-11T21:07:48.213Z,64.34
2018-07-11T21:12:58.990Z,63.71
2018-07-11T21:19:50.573Z,63.05
2018-07-11T21:24:34.178Z,62.08
2018-07-11T21:29:17.881Z,62.72
2018-07-11T21:34:01.408Z,61.65
2018-07-11T21:38:49.578Z,61.77
2018-07-11T21:43:33.024Z,62.74
2018-07-11T21:48:17.530Z,62.37
2018-07-11T21:53:01.148Z,63.52
2018-07-11T21:57:44.889Z,63.52
2018-07-11T22:02:28.377Z,63.67
2018-07-11T22:07:12.002Z,62.64
2018-07-11T22:11:58.979Z,62.95
2018-07-11T22:16:42.657Z,62.64
2018-07-11T22:21:31.461Z,62.09
2018-07-11T22:26:13.285Z,63.73
2018-07-11T22:30:56.105Z,62.59
2018-07-11T22:35:37.985Z,63.13
2018-07-11T22:40:25.630Z,63.04
2018-07-11T22:45:07.340Z,62.80
2018-07-11T22:49:54.520Z,62.92
2018-07-11T22:54:36.354Z,63.04
2018-07-11T22:59:21.315Z,61.73
2018-07-11T23:04:03.169Z,61.91
2018-07-11T23:08:46.201Z,61.85
2018-07-11T23:13:28.052Z,61.87
2018-07-11T23:18:10.215Z,62.44
2018-07-11T23:22:52.067Z,62.87
2018-07-11T23:27:33.930Z,62.71
2018-07-11T23:32:15.842Z,62.73
2018-07-11T23:36:57.630Z,62.87
2018-07-11T23:41:44.840Z,62.30
2018-07-11T23:46:27.361Z,62.94
2018-07-11T23:51:10.218Z,62.58
2018-07-11T23:55:52.050Z,62.07
